Geokinetics Inc (NASDAQOTH:GEOKQ)

CAPS Rating: 2 out of 5

The Company is a global provider of seismic data acquisition services in land, marsh and swamp and shallow water environments to the oil and natural gas industry.

Results 1 - 99 of 125 : 1 2 Next »
Top
Pick
Member Name Member
Rating
Start
Date
Call Time
Frame
Start
Price
Stock
Gain
Index
Gain
Score Commentary
artcorvelay < 20 5/14/2012 Outperform 1Y $1.32 -99.43% +39.86% -139.29 0 Comment
MoneyPlusSport < 20 1/25/2012 Underperform 5Y $2.00 -99.62% +43.10% +142.72 0 Comment
jdparksASI < 20 9/7/2011 Outperform 5Y $4.60 -99.84% +56.50% -156.34 0 Comment
GreenHillFarAway 29.37 8/22/2011 Outperform 5Y $3.99 -99.81% +65.98% -165.79 0 Comment
MrGreenGenes < 20 6/1/2009 5/4/2011 Underperform 5Y $14.34 -99.95% +102.62% +202.57 0 Comment
Rehydrogenated 32.53 3/29/2011 Outperform 5Y $8.68 -99.91% +43.26% -143.17 0 Comment
PavsElliotWave 86.35 3/28/2011 Outperform 5Y $8.79 -99.91% +42.75% -142.66 0 Comment
2011Fool 99.50 3/25/2011 Outperform NS $8.99 -99.92% +43.12% -143.04 0 Comment
LEGMAKER < 20 2/28/2011 Outperform 5Y $10.59 -99.93% +41.42% -141.35 0 Comment
hcve < 20 1/12/2011 Outperform 3W $9.41 -99.92% +46.65% -146.57 0 Comment
MagicMaggie < 20 12/7/2010 Outperform 5Y $9.35 -99.92% +51.55% -151.47 0 Comment
OberHund < 20 12/6/2010 Outperform 5Y $9.29 -99.92% +53.17% -153.09 0 Comment
tiger6667 < 20 12/1/2010 Outperform 5Y $8.51 -99.91% +56.26% -156.18 0 Comment
bullinnature 96.66 11/9/2009 11/8/2010 Outperform 3Y $12.72 -99.94% +74.00% -173.94 0 Comment
cletedinero < 20 10/18/2010 Outperform 5Y $7.31 -99.90% +59.04% -158.94 0 Comment
brilin 63.44 10/4/2010 Outperform 5Y $6.00 -99.88% +64.23% -164.11 0 Comment
smallandmidcap 94.84 8/10/2010 Underperform 5Y $4.51 -99.83% +67.66% +167.49 0 Comment
roth450 30.86 7/20/2010 Outperform NS $3.99 -99.81% +77.42% -177.23 0 Comment
EffinObama < 20 7/19/2010 Outperform 3Y $4.06 -99.82% +76.17% -175.98 0 Comment
thisyearslosers < 20 6/29/2010 Outperform 5Y $4.12 -99.82% +79.50% -179.32 0 Comment
startunderfive < 20 6/28/2010 Outperform 5Y $4.49 -99.83% +74.43% -174.27 0 Comment
institutionsdown 72.34 6/22/2010 Outperform 5Y $4.88 -99.85% +68.59% -168.44 0 Comment
obsoleteaccount 30.76 6/21/2010 Outperform 5Y $4.91 -99.85% +69.03% -168.87 0 Comment
jroren 98.80 6/21/2010 Underperform 3M $5.36 -99.86% +66.04% +165.90 0 Comment
alexdavismith 93.77 6/21/2010 Underperform 5Y $5.36 -99.86% +66.04% +165.90 0 Comment
iddqkfyou < 20 5/11/2010 Outperform 5Y $6.30 -99.88% +63.23% -163.11 1 Comment
asitka 36.40 5/3/2010 Outperform 1Y $8.74 -99.91% +57.34% -157.25 0 Comment
Genomac 35.01 4/26/2010 Outperform 5Y $9.58 -99.92% +54.15% -154.07 0 Comment
dejawn69 71.99 4/26/2010 Outperform 5Y $9.58 -99.92% +54.15% -154.07 0 Comment
HotDdogv2 < 20 4/26/2010 Outperform 5Y $9.58 -99.92% +54.15% -154.07 0 Comment
aliuce 38.20 4/23/2010 Outperform NS $9.53 -99.92% +54.87% -154.79 0 Comment
iamvoltron 25.39 4/22/2010 Outperform 5Y $8.47 -99.91% +56.77% -156.68 0 Comment
explicitonline 36.88 4/20/2010 Underperform 1Y $8.28 -99.91% +55.50% +155.41 0 Comment
markantonythe3rd 31.99 4/20/2010 Outperform 5Y $8.21 -99.91% +55.75% -155.65 0 Comment
dashark44 96.03 4/19/2010 Outperform 5Y $7.81 -99.90% +58.13% -158.04 0 Comment
Powderiver < 20 4/12/2010 Outperform 5Y $7.94 -99.91% +56.88% -156.78 0 Comment
manjux < 20 4/1/2010 Underperform 3M $7.32 -99.90% +59.41% +159.31 0 Comment
blue2fire < 20 3/22/2010 Outperform 5Y $7.39 -99.90% +62.89% -162.79 0 Comment
StThomasMoreEsq2 98.92 12/29/2009 2/19/2010 Outperform 3M $9.89 -99.92% +66.64% -166.56 0 Comment
HasOrHasNot 48.60 1/28/2010 Outperform 3Y $10.04 -99.93% +70.43% -170.35 0 Comment
CanisMinor 46.41 1/22/2010 Outperform 5Y $10.19 -99.93% +68.91% -168.84 0 Comment
FreeMortal 29.58 1/20/2010 Outperform 5Y $10.34 -99.93% +65.42% -165.34 0 Comment
StGiannaMolla 40.13 1/11/2010 Outperform 5Y $10.53 -99.93% +63.67% -163.60 0 Comment
Clockworker < 20 1/6/2010 Outperform 5Y $9.84 -99.92% +65.36% -165.28 0 Comment
TMFPlatoish 99.34 12/16/2009 Outperform 5Y $9.27 -99.92% +67.75% -167.67 0 Comment
chinneymartin 92.86 11/13/2009 Outperform 5Y $13.20 -99.94% +70.88% -170.82 0 Comment
wkcgx2 < 20 11/9/2009 Outperform 5Y $13.18 -99.94% +73.06% -173.00 0 Comment
outperformONLY < 20 10/19/2009 Outperform 5Y $19.49 -99.96% +72.21% -172.17 0 Comment
pennycruncher < 20 10/19/2009 Outperform 5Y $19.49 -99.96% +72.21% -172.17 0 Comment
GIGManager < 20 10/8/2009 Outperform 3Y $19.24 -99.96% +75.92% -175.88 0 Comment
TotalStrange 98.10 8/12/2009 Outperform 1Y $14.58 -99.95% +87.32% -187.27 0 Comment
jddubya 60.66 6/5/2009 Outperform 5Y $14.81 -99.95% +100.21% -200.16 0 Comment
TXmaverick < 20 6/2/2009 Underperform 3W $14.00 -99.95% +99.86% +199.81 1 Comment
marcet 71.51 5/28/2009 Outperform 5Y $13.26 -99.94% +108.77% -208.72 0 Comment
cwimbish < 20 5/28/2009 Outperform 5Y $11.46 -99.93% +109.81% -209.74 1 Comment
theMovement 89.07 5/21/2009 Outperform 1Y $9.86 -99.92% +112.15% -212.07 0 Comment
unstoppablepeon < 20 10/27/2008 Underperform NS $6.01 -99.88% +122.80% +222.67 1 Comment
moonleg 21.03 10/22/2008 Underperform 1Y $6.45 -99.88% +106.65% +206.53 0 Comment
Chiownknee 85.20 10/20/2008 Outperform 5Y $8.28 -99.91% +99.99% -199.89 0 Comment
IWalker182 48.25 10/17/2008 Outperform NS $8.44 -99.91% +102.55% -202.46 0 Comment
wakoma < 20 10/8/2008 Outperform NS $12.80 -99.94% +97.59% -197.53 1 Comment
istilldontcare 97.49 9/18/2008 Outperform 5Y $17.34 -99.96% +65.71% -165.67 0 Comment
unotsomuch < 20 8/20/2008 Outperform 3Y $19.10 -99.96% +52.16% -152.12 0 Comment
ejtrains 31.63 8/11/2008 Outperform NS $20.00 -99.96% +49.68% -149.64 0 Comment
joetheboss 65.22 6/11/2008 Outperform 3Y $19.57 -99.96% +44.21% -144.17 1 Comment
Sqwii < 20 6/10/2008 Outperform 1Y $20.32 -99.96% +42.87% -142.84 1 Comment
floridabull33 63.05 5/22/2008 Outperform 3M $20.64 -99.96% +39.78% -139.74 0 Comment
GDragonsDad 54.30 5/7/2008 Outperform NS $19.04 -99.96% +38.07% -138.03 0 Comment
TexasGeoTech < 20 4/30/2008 Outperform 3M $19.04 -99.96% +39.25% -139.22 0 Comment
JCASS714 70.19 4/29/2008 Outperform 5Y $18.82 -99.96% +39.81% -139.77 0 Comment
tuckerjack 20.55 4/17/2008 Outperform 5Y $19.60 -99.96% +43.03% -142.99 0 Comment
greengal1 < 20 4/17/2008 Outperform 3Y $19.60 -99.96% +43.03% -142.99 1 Comment
ctnotebo 49.59 4/11/2008 Outperform 3Y $17.56 -99.96% +44.44% -144.40 0 Comment
louisianacoonie < 20 3/31/2008 Outperform NS $17.95 -99.96% +47.51% -147.46 0 Comment
bengalmomof4 70.98 3/28/2008 Underperform 3M $17.78 -99.96% +46.47% +146.43 0 Comment
chad07gt 33.10 3/27/2008 Outperform NS $17.78 -99.96% +46.28% -146.24 0 Comment
MoltenTofu < 20 3/14/2008 Outperform NS $17.34 -99.96% +47.43% -147.39 0 Comment
AgendaPacific 39.15 3/14/2008 Outperform 3Y $17.34 -99.96% +47.43% -147.39 0 Comment
ToeInsider 85.67 3/10/2008 Outperform NS $16.26 -99.95% +50.80% -150.75 0 Comment
altitudeaddict 38.21 2/28/2008 Outperform 5Y $17.94 -99.96% +42.64% -142.59 0 Comment
tritterup 51.50 2/26/2008 Outperform NS $18.36 -99.96% +41.76% -141.72 0 Comment
arindamd < 20 2/26/2008 Outperform 1Y $17.79 -99.96% +42.66% -142.61 1 Comment
dmgchess 87.08 2/20/2008 Outperform 1Y $17.66 -99.96% +46.09% -146.05 0 Comment
aalvarma < 20 2/20/2008 Outperform 1Y $17.66 -99.96% +46.09% -146.05 0 Comment
thetoxman 84.58 2/14/2008 Outperform 1Y $17.31 -99.96% +42.94% -142.89 0 Comment
thatguy99 26.78 2/5/2008 Outperform 5Y $17.79 -99.96% +44.00% -143.96 0 Comment
mopomi 79.73 1/24/2008 Outperform 5Y $18.76 -99.96% +45.88% -145.84 0 Comment
ATWDLimited < 20 1/23/2008 Outperform NS $18.34 -99.96% +50.78% -150.74 0 Comment
financeman101 87.00 1/17/2008 Outperform NS $16.85 -99.96% +46.97% -146.93 0 Comment
evreeland 94.09 1/16/2008 Outperform 1Y $16.25 -99.95% +42.92% -142.88 0 Comment
Obyss 57.20 12/31/2007 Outperform 3W $19.14 -99.96% +33.08% -133.04 0 Comment
Kenster35OR 60.46 12/24/2007 Outperform 1Y $20.20 -99.96% +31.54% -131.50 0 Comment
StockRakedotcom < 20 12/13/2007 Outperform NS $22.40 -99.97% +32.68% -132.65 0 Comment
everything4less 53.39 12/13/2007 Outperform 1Y $22.40 -99.97% +32.68% -132.65 0 Comment
beachlokal < 20 12/12/2007 Outperform 5Y $23.10 -99.97% +31.63% -131.60 0 Comment
WavingSpices < 20 12/5/2007 Outperform NS $22.10 -99.97% +32.74% -132.70 0 Comment
SaltyGenes 68.10 11/27/2007 Outperform 5Y $22.14 -99.97% +38.84% -138.80 0 Comment
apper < 20 11/21/2007 Outperform 5Y $22.58 -99.97% +38.47% -138.43 0 Comment
ProjectJack < 20 11/5/2007 Outperform 1Y $19.90 -99.96% +30.92% -130.88 0 Comment
Results 1 - 99 of 125 : 1 2 Next »

Featured Broker Partners


Advertisement